Time;durP1;ratioP1;P1;durP2;ratioP2;P2;SDS_P1;SDS_P2;PMS_P1;PMS_P2;Temp;Humidity;BMP_temperature;BMP_pressure;BME280_temperature;BME280_humidity;BME280_pressure;Samples;Min_cycle;Max_cycle;Signal;HPM_P1;HPM_P2
2022/08/09 00:02:06;;;;;;;6.13;2.35;;;19.70;99.90;;;;;;5070474;28;20208;-68
2022/08/09 00:04:33;;;;;;;8.90;2.13;;;19.70;99.90;;;;;;5073032;28;20176;-69
2022/08/09 00:06:59;;;;;;;7.82;2.50;;;19.70;99.90;;;;;;5073010;28;20172;-68
2022/08/09 00:09:25;;;;;;;6.10;2.10;;;19.70;99.90;;;;;;5072963;28;20198;-69
2022/08/09 00:11:50;;;;;;;6.50;2.55;;;19.90;99.90;;;;;;5072873;28;20745;-68
2022/08/09 00:14:16;;;;;;;5.75;2.00;;;19.90;99.90;;;;;;5072936;28;20639;-68
2022/08/09 00:16:42;;;;;;;6.75;2.17;;;19.80;99.90;;;;;;5072761;28;20199;-68
2022/08/09 00:19:09;;;;;;;5.20;2.17;;;19.80;99.90;;;;;;5072811;28;20226;-68
2022/08/09 00:21:35;;;;;;;7.45;2.58;;;19.80;99.90;;;;;;5072754;28;20172;-69
2022/08/09 00:24:01;;;;;;;7.93;2.30;;;19.90;99.90;;;;;;5072500;28;20219;-68
2022/08/09 00:26:29;;;;;;;6.15;2.38;;;19.90;99.90;;;;;;5072765;28;20169;-68
2022/08/09 00:28:55;;;;;;;8.18;2.50;;;19.80;99.90;;;;;;5072579;28;20275;-69
2022/08/09 00:31:22;;;;;;;6.75;2.40;;;19.80;99.90;;;;;;5072654;28;20241;-69
2022/08/09 00:33:48;;;;;;;7.28;2.42;;;19.80;99.90;;;;;;5072487;28;20654;-70
2022/08/09 00:36:14;;;;;;;6.47;2.33;;;19.70;99.90;;;;;;5072360;28;20173;-69
2022/08/09 00:38:40;;;;;;;6.00;2.25;;;19.70;99.90;;;;;;5072416;28;20175;-69
2022/08/09 00:41:06;;;;;;;8.00;2.65;;;19.70;99.90;;;;;;5072060;28;20755;-69
2022/08/09 00:43:35;;;;;;;11.63;2.63;;;19.70;99.90;;;;;;5072537;28;20254;-68
2022/08/09 00:46:02;;;;;;;7.60;2.60;;;19.80;99.90;;;;;;5072250;28;20168;-68
2022/08/09 00:48:28;;;;;;;6.47;2.40;;;19.80;99.90;;;;;;5072191;28;20259;-69
2022/08/09 00:50:54;;;;;;;6.65;2.50;;;19.80;99.90;;;;;;5072174;28;20653;-69
2022/08/09 00:53:20;;;;;;;10.75;2.92;;;19.70;99.90;;;;;;5072026;28;20538;-69
2022/08/09 00:55:46;;;;;;;7.60;2.50;;;19.70;99.90;;;;;;5071974;28;20177;-68
2022/08/09 00:58:12;;;;;;;4.43;2.63;;;19.60;99.90;;;;;;5072032;28;20642;-69
2022/08/09 01:00:40;;;;;;;5.30;2.25;;;19.60;99.90;;;;;;5071899;28;20219;-68
2022/08/09 01:03:15;;;;;;;9.90;3.00;;;19.50;99.90;;;;;;5071760;28;20200;-68
2022/08/09 01:05:54;;;;;;;9.32;2.60;;;19.50;99.90;;;;;;5071799;28;20764;-69
2022/08/09 01:08:28;;;;;;;11.65;2.88;;;19.40;99.90;;;;;;5071550;28;20604;-68
2022/08/09 01:11:08;;;;;;;6.80;2.67;;;19.40;99.90;;;;;;5071788;28;20259;-70
2022/08/09 01:13:49;;;;;;;8.15;2.17;;;19.30;99.90;;;;;;5069861;28;20176;-69
2022/08/09 01:16:19;;;;;;;8.10;2.58;;;19.30;99.90;;;;;;5072042;28;20591;-68
2022/08/09 01:18:47;;;;;;;6.28;2.70;;;19.20;99.90;;;;;;5071472;28;20165;-68
2022/08/09 01:21:44;;;;;;;3.97;2.38;;;19.30;99.90;;;;;;5071447;28;20164;-68
2022/08/09 01:24:18;;;;;;;5.20;2.30;;;19.20;99.90;;;;;;5071435;28;20192;-68
2022/08/09 01:26:52;;;;;;;10.73;2.50;;;19.20;99.90;;;;;;5071534;28;20192;-69
2022/08/09 01:29:21;;;;;;;12.30;3.15;;;19.10;99.90;;;;;;5071464;28;20172;-69
2022/08/09 01:31:49;;;;;;;4.88;2.30;;;19.10;99.90;;;;;;5071472;28;20702;-68
2022/08/09 01:34:19;;;;;;;9.18;2.75;;;19.10;99.90;;;;;;5071332;28;20168;-69
2022/08/09 01:36:47;;;;;;;8.45;2.58;;;19.00;99.90;;;;;;5069833;28;20169;-68
2022/08/09 01:39:15;;;;;;;9.02;3.03;;;19.00;99.90;;;;;;5069811;28;20172;-68
2022/08/09 01:41:41;;;;;;;8.70;2.50;;;19.00;99.90;;;;;;5070952;28;20236;-68
2022/08/09 01:44:09;;;;;;;6.85;2.35;;;18.90;99.90;;;;;;5071025;28;20196;-68
2022/08/09 01:46:38;;;;;;;9.13;2.17;;;18.90;99.90;;;;;;5071284;28;20235;-68
2022/08/09 01:49:08;;;;;;;9.45;2.30;;;18.90;99.90;;;;;;5070897;28;20210;-68
2022/08/09 01:51:36;;;;;;;4.75;2.10;;;18.90;99.90;;;;;;5069693;28;20168;-69
2022/08/09 01:54:04;;;;;;;6.20;2.60;;;18.90;99.90;;;;;;5070963;28;20176;-68
2022/08/09 01:56:32;;;;;;;3.78;2.17;;;18.90;99.90;;;;;;5070925;28;20172;-68
2022/08/09 01:59:02;;;;;;;6.45;2.40;;;18.80;99.90;;;;;;5070968;28;20198;-69
2022/08/09 02:01:29;;;;;;;5.72;2.20;;;18.70;99.90;;;;;;5070972;28;20202;-68
2022/08/09 02:03:57;;;;;;;9.38;2.20;;;18.70;99.90;;;;;;5070908;28;20257;-69
2022/08/09 02:09:11;;;;;;;8.00;1.80;;;18.70;99.90;;;;;;5071320;28;20179;-68
2022/08/09 02:11:37;;;;;;;8.10;2.15;;;18.60;99.90;;;;;;5070838;28;20172;-68
2022/08/09 02:14:05;;;;;;;4.93;1.83;;;18.20;99.90;;;;;;5069515;28;20179;-68
2022/08/09 02:16:34;;;;;;;4.88;2.10;;;18.60;99.90;;;;;;5070814;28;20650;-69
2022/08/09 02:19:00;;;;;;;3.90;1.80;;;18.60;99.90;;;;;;5070673;28;20558;-69
2022/08/09 02:21:30;;;;;;;6.80;2.15;;;18.50;99.90;;;;;;5070694;28;20176;-68
2022/08/09 02:23:58;;;;;;;6.38;2.10;;;18.40;99.90;;;;;;5071333;28;20211;-69
2022/08/09 02:26:27;;;;;;;8.48;2.03;;;18.40;99.90;;;;;;5074863;28;20218;-68
2022/08/09 02:28:57;;;;;;;6.90;2.03;;;18.40;99.90;;;;;;5074784;28;20172;-68
2022/08/09 02:31:29;;;;;;;9.40;2.00;;;18.30;99.90;;;;;;5074614;28;20173;-67
2022/08/09 02:33:59;;;;;;;5.13;2.10;;;18.30;99.90;;;;;;5074809;28;20278;-68
2022/08/09 02:36:38;;;;;;;6.32;2.10;;;18.30;99.90;;;;;;5074589;28;20164;-67
2022/08/09 02:39:06;;;;;;;6.85;2.45;;;18.30;99.90;;;;;;5074679;28;20170;-68
2022/08/09 02:41:45;;;;;;;5.38;1.92;;;18.30;99.90;;;;;;5074357;28;20273;-68
2022/08/09 02:44:19;;;;;;;6.55;1.77;;;18.20;99.90;;;;;;5074380;28;20222;-68
2022/08/09 02:46:47;;;;;;;8.55;2.05;;;18.30;99.90;;;;;;5074386;28;20264;-67
2022/08/09 02:49:16;;;;;;;9.10;2.30;;;18.20;99.90;;;;;;5074365;28;20173;-68
2022/08/09 02:51:45;;;;;;;8.45;2.00;;;18.10;99.90;;;;;;5074490;28;20180;-67
2022/08/09 02:54:14;;;;;;;11.02;2.20;;;18.20;99.90;;;;;;5074341;28;20256;-67
2022/08/09 02:56:44;;;;;;;6.10;2.05;;;18.10;99.90;;;;;;5074246;28;20200;-69
2022/08/09 02:59:11;;;;;;;5.20;2.00;;;18.00;99.90;;;;;;5072837;28;20179;-67
2022/08/09 03:01:38;;;;;;;7.78;2.38;;;18.00;99.90;;;;;;5072872;28;20209;-68
2022/08/09 03:04:05;;;;;;;8.13;2.47;;;18.00;99.90;;;;;;5074103;28;20738;-68
2022/08/09 03:06:33;;;;;;;8.95;1.90;;;18.00;99.90;;;;;;5074135;28;20176;-68
2022/08/09 03:09:00;;;;;;;4.50;2.05;;;18.00;99.90;;;;;;5073930;28;20184;-68
2022/08/09 03:11:27;;;;;;;6.57;2.10;;;17.90;99.90;;;;;;5073873;28;20165;-69
2022/08/09 03:13:54;;;;;;;6.70;1.98;;;17.90;99.90;;;;;;5073736;28;20167;-68
2022/08/09 03:16:22;;;;;;;7.05;2.45;;;17.90;99.90;;;;;;5073881;28;20230;-68
2022/08/09 03:18:48;;;;;;;3.53;2.40;;;17.90;99.90;;;;;;5073665;28;20176;-68
2022/08/09 03:21:15;;;;;;;5.88;2.58;;;17.80;99.90;;;;;;5073528;28;20176;-67
2022/08/09 03:23:45;;;;;;;8.88;2.30;;;17.80;99.90;;;;;;5073636;28;20575;-68
2022/08/09 03:26:14;;;;;;;7.32;2.28;;;17.80;99.90;;;;;;5073756;28;20195;-68
2022/08/09 03:28:42;;;;;;;4.10;1.98;;;17.70;99.90;;;;;;5073695;28;20202;-68
2022/08/09 03:31:09;;;;;;;5.25;2.35;;;17.70;99.90;;;;;;5073714;28;20206;-68
2022/08/09 03:33:36;;;;;;;5.75;2.20;;;17.60;99.90;;;;;;5073625;28;20161;-68
2022/08/09 03:36:02;;;;;;;5.10;2.20;;;17.50;99.90;;;;;;5073144;28;20184;-69
2022/08/09 03:38:28;;;;;;;4.18;2.38;;;17.50;99.90;;;;;;5073503;28;20522;-68
2022/08/09 03:40:54;;;;;;;5.05;2.10;;;17.40;99.90;;;;;;5073346;28;20212;-68
2022/08/09 03:43:20;;;;;;;6.80;2.38;;;17.30;99.90;;;;;;5073220;28;20310;-68
2022/08/09 03:45:46;;;;;;;4.65;2.40;;;17.30;99.90;;;;;;5073423;28;20160;-68
2022/08/09 03:48:11;;;;;;;7.80;2.40;;;17.20;99.90;;;;;;5073352;28;20263;-68
2022/08/09 03:50:39;;;;;;;6.85;2.80;;;17.20;99.90;;;;;;5073357;28;20172;-68
2022/08/09 03:53:08;;;;;;;6.72;2.70;;;17.20;99.90;;;;;;5073358;28;20215;-67
2022/08/09 03:55:35;;;;;;;8.00;2.75;;;17.20;99.90;;;;;;5073324;28;20173;-68
2022/08/09 03:58:01;;;;;;;5.32;2.53;;;17.10;99.90;;;;;;5073474;28;20177;-67
2022/08/09 04:00:27;;;;;;;5.05;2.63;;;17.20;99.90;;;;;;5073065;28;20168;-68
2022/08/09 04:02:54;;;;;;;7.05;2.78;;;17.20;99.90;;;;;;5073042;28;20302;-67
2022/08/09 04:05:20;;;;;;;9.45;2.47;;;17.10;99.90;;;;;;5073096;28;20203;-67
2022/08/09 04:07:46;;;;;;;9.68;3.05;;;17.10;99.90;;;;;;5072915;28;20576;-68
2022/08/09 04:10:14;;;;;;;3.95;2.50;;;17.10;99.90;;;;;;5073047;28;20173;-68
2022/08/09 04:12:51;;;;;;;7.53;2.67;;;17.00;99.90;;;;;;5072972;28;20203;-68
2022/08/09 04:15:19;;;;;;;8.88;2.70;;;17.00;99.90;;;;;;5072855;28;20294;-68
2022/08/09 04:17:45;;;;;;;6.97;2.60;;;17.00;99.90;;;;;;5072741;28;20180;-68
2022/08/09 04:20:11;;;;;;;10.57;2.85;;;17.00;99.90;;;;;;5072676;28;20172;-67
2022/08/09 04:22:38;;;;;;;5.20;2.80;;;16.90;99.90;;;;;;5072470;28;20201;-68
2022/08/09 04:25:04;;;;;;;7.07;2.80;;;16.90;99.90;;;;;;5072572;28;20171;-69
2022/08/09 04:27:30;;;;;;;6.38;2.55;;;16.90;99.90;;;;;;5072402;28;20184;-69
2022/08/09 04:29:56;;;;;;;6.25;2.55;;;16.80;99.90;;;;;;5072500;28;20164;-68
2022/08/09 04:32:41;;;;;;;7.47;3.03;;;16.80;99.90;;;;;;4757236;22;22398;-61
2022/08/09 04:35:09;;;;;;;5.45;2.40;;;16.70;99.90;;;;;;5057774;22;20221;-68
2022/08/09 04:37:35;;;;;;;7.50;3.13;;;16.70;99.90;;;;;;5052438;28;20165;-68
2022/08/09 04:40:01;;;;;;;6.13;3.20;;;16.60;99.90;;;;;;5052486;28;20256;-69
2022/08/09 04:42:28;;;;;;;5.50;3.10;;;16.60;99.90;;;;;;5052429;28;20273;-68
2022/08/09 04:44:58;;;;;;;7.30;2.67;;;16.60;99.90;;;;;;5052299;28;20180;-67
2022/08/09 04:47:24;;;;;;;4.55;2.97;;;16.50;99.90;;;;;;5051475;28;20170;-68
2022/08/09 04:49:50;;;;;;;7.45;2.53;;;16.50;99.90;;;;;;5052170;28;20176;-68
2022/08/09 04:52:16;;;;;;;8.77;3.30;;;16.40;99.90;;;;;;5052217;28;20216;-68
2022/08/09 04:54:42;;;;;;;9.30;3.30;;;16.40;99.90;;;;;;5050690;28;20223;-67
2022/08/09 04:57:08;;;;;;;7.03;3.28;;;16.30;99.90;;;;;;5052054;28;20165;-69
2022/08/09 04:59:33;;;;;;;10.95;3.25;;;16.30;99.90;;;;;;5051883;28;20177;-68
2022/08/09 05:01:59;;;;;;;6.88;3.25;;;16.30;99.90;;;;;;5051958;28;20184;-68
2022/08/09 05:04:25;;;;;;;10.90;3.50;;;16.30;99.90;;;;;;5051914;28;20194;-68
2022/08/09 05:06:50;;;;;;;8.82;3.53;;;16.30;99.90;;;;;;5051999;28;20200;-68
2022/08/09 05:09:16;;;;;;;9.05;2.92;;;16.30;99.90;;;;;;5051849;28;20214;-68
2022/08/09 05:11:42;;;;;;;5.00;3.17;;;16.30;99.90;;;;;;5051849;28;20169;-68
2022/08/09 05:14:07;;;;;;;7.32;3.20;;;16.30;99.90;;;;;;5051614;28;20227;-69
2022/08/09 05:16:34;;;;;;;6.38;3.13;;;16.30;99.90;;;;;;5051610;28;20184;-69
2022/08/09 05:19:00;;;;;;;8.63;3.28;;;16.30;99.90;;;;;;5051814;28;20189;-68
2022/08/09 05:21:27;;;;;;;9.80;3.45;;;16.30;99.90;;;;;;5051517;28;20704;-69
2022/08/09 05:23:53;;;;;;;6.30;2.88;;;16.30;99.90;;;;;;5051472;28;20516;-69
2022/08/09 05:26:19;;;;;;;8.20;3.35;;;16.30;99.90;;;;;;5051588;28;20176;-68
2022/08/09 05:28:45;;;;;;;10.98;3.38;;;16.30;99.90;;;;;;5051418;28;20261;-68
2022/08/09 05:31:11;;;;;;;7.35;3.38;;;16.30;99.90;;;;;;5051329;28;20702;-69
2022/08/09 05:33:37;;;;;;;9.98;4.28;;;16.40;99.90;;;;;;5051048;28;20220;-68
2022/08/09 05:36:03;;;;;;;6.90;3.40;;;16.40;99.90;;;;;;5051210;28;20218;-68
2022/08/09 05:38:30;;;;;;;10.80;3.17;;;16.40;99.90;;;;;;5051186;28;20180;-68
2022/08/09 05:40:55;;;;;;;9.63;3.75;;;16.40;99.90;;;;;;5050023;28;20169;-69
2022/08/09 05:43:21;;;;;;;6.82;3.25;;;16.40;99.90;;;;;;5051250;28;20631;-68
2022/08/09 05:45:47;;;;;;;20.48;4.03;;;16.40;99.90;;;;;;5049919;28;20620;-69
2022/08/09 05:48:12;;;;;;;8.30;3.20;;;16.40;99.90;;;;;;5051209;28;20223;-68
2022/08/09 05:50:40;;;;;;;12.10;3.50;;;16.50;99.90;;;;;;5051095;28;20655;-68
2022/08/09 05:53:06;;;;;;;8.65;3.63;;;17.20;99.90;;;;;;5050960;28;20220;-68
2022/08/09 05:55:32;;;;;;;5.07;3.13;;;16.50;99.90;;;;;;5051034;28;20173;-68
2022/08/09 05:57:58;;;;;;;5.75;3.08;;;16.60;99.90;;;;;;5050964;28;20165;-68
2022/08/09 06:00:28;;;;;;;6.97;3.25;;;16.70;99.90;;;;;;5051086;28;20575;-68
2022/08/09 06:02:59;;;;;;;7.70;3.10;;;16.70;99.90;;;;;;5050996;28;20173;-68
2022/08/09 06:05:31;;;;;;;6.20;3.47;;;16.70;99.90;;;;;;5050919;28;20200;-68
2022/08/09 06:07:57;;;;;;;12.05;3.25;;;16.80;99.90;;;;;;5050944;28;20172;-68
2022/08/09 06:10:36;;;;;;;7.82;3.40;;;16.80;99.90;;;;;;5050839;28;20173;-67
2022/08/09 06:13:04;;;;;;;7.28;3.08;;;16.90;99.90;;;;;;5050893;28;20286;-68
2022/08/09 06:15:29;;;;;;;7.47;3.15;;;16.90;99.90;;;;;;5050779;28;20172;-67
2022/08/09 06:17:55;;;;;;;9.23;3.85;;;17.00;99.90;;;;;;5066433;28;20173;-68
2022/08/09 06:20:21;;;;;;;8.25;3.10;;;17.10;99.90;;;;;;5050828;28;20165;-68
2022/08/09 06:22:46;;;;;;;8.63;3.45;;;17.10;99.90;;;;;;5050655;28;20464;-68
2022/08/09 06:25:12;;;;;;;8.52;3.38;;;17.10;99.90;;;;;;5049374;28;20180;-67
2022/08/09 06:27:38;;;;;;;7.70;3.05;;;17.20;99.90;;;;;;5049526;28;20177;-67
2022/08/09 06:30:04;;;;;;;9.10;3.33;;;17.30;99.90;;;;;;5050580;28;20173;-67
2022/08/09 06:32:29;;;;;;;8.95;3.92;;;17.30;99.90;;;;;;5050607;28;20319;-67
2022/08/09 06:34:55;;;;;;;7.80;3.22;;;17.40;99.90;;;;;;5050712;28;20322;-67
2022/08/09 06:37:21;;;;;;;7.07;3.05;;;17.40;99.90;;;;;;5050498;28;20234;-68
2022/08/09 06:39:46;;;;;;;8.55;3.20;;;17.60;99.90;;;;;;5050448;28;20652;-67
2022/08/09 06:42:12;;;;;;;10.57;3.42;;;17.70;99.90;;;;;;5049212;28;20172;-67
2022/08/09 06:44:38;;;;;;;6.75;2.67;;;17.70;99.90;;;;;;5050500;28;20252;-67
2022/08/09 06:47:03;;;;;;;5.60;3.15;;;17.70;99.90;;;;;;5050329;28;20635;-68
2022/08/09 06:49:29;;;;;;;8.73;3.20;;;17.80;99.90;;;;;;5050477;28;20173;-67
2022/08/09 06:51:55;;;;;;;9.02;3.08;;;17.90;99.90;;;;;;5050361;28;20186;-67
2022/08/09 06:54:20;;;;;;;8.48;3.50;;;18.00;99.90;;;;;;5050350;28;20223;-67
2022/08/09 06:56:46;;;;;;;7.65;3.22;;;18.00;99.90;;;;;;5050401;28;20253;-67
2022/08/09 06:59:12;;;;;;;5.40;3.00;;;18.10;99.90;;;;;;5050371;28;20178;-68
2022/08/09 07:01:38;;;;;;;9.05;3.42;;;18.10;99.90;;;;;;5050409;28;20574;-68
2022/08/09 07:04:03;;;;;;;9.45;3.40;;;18.20;99.90;;;;;;5050155;28;20166;-67
2022/08/09 07:06:29;;;;;;;9.73;3.00;;;18.20;99.90;;;;;;5050397;28;20176;-67
2022/08/09 07:08:55;;;;;;;9.05;3.45;;;18.30;99.90;;;;;;5050234;28;20265;-67
2022/08/09 07:11:20;;;;;;;9.77;3.88;;;18.30;99.90;;;;;;5053050;28;20173;-67
2022/08/09 07:13:46;;;;;;;9.20;3.55;;;18.20;99.90;;;;;;5053922;28;20209;-67
2022/08/09 07:16:12;;;;;;;8.13;4.05;;;18.20;99.90;;;;;;5053999;28;20181;-66
2022/08/09 07:18:37;;;;;;;7.22;3.65;;;18.20;99.90;;;;;;5053860;28;20162;-67
2022/08/09 07:21:03;;;;;;;8.75;4.10;;;18.30;99.90;;;;;;5053784;28;20512;-67
2022/08/09 07:23:28;;;;;;;11.98;4.60;;;18.30;99.90;;;;;;5052690;28;20181;-68
2022/08/09 07:25:54;;;;;;;14.57;4.10;;;18.20;99.90;;;;;;5053849;28;20226;-68
2022/08/09 07:28:20;;;;;;;14.07;4.38;;;18.30;99.90;;;;;;5053739;28;20197;-68
2022/08/09 07:30:45;;;;;;;9.20;3.67;;;18.40;99.90;;;;;;5053474;28;20726;-68
2022/08/09 07:33:11;;;;;;;7.50;3.63;;;18.60;99.90;;;;;;5053387;28;20212;-68
2022/08/09 07:35:37;;;;;;;10.90;4.20;;;18.70;99.90;;;;;;5053273;28;20308;-68
2022/08/09 07:38:03;;;;;;;12.00;3.55;;;18.80;99.90;;;;;;5053538;28;20177;-68
2022/08/09 07:40:28;;;;;;;10.68;3.60;;;18.90;99.90;;;;;;5053693;28;20165;-68
2022/08/09 07:42:55;;;;;;;14.23;4.35;;;19.10;99.90;;;;;;5053678;28;20188;-68
2022/08/09 07:45:26;;;;;;;9.30;4.32;;;19.10;99.90;;;;;;5052177;28;20208;-68
2022/08/09 07:47:53;;;;;;;7.10;3.83;;;19.20;99.90;;;;;;5053593;28;20184;-68
2022/08/09 07:50:20;;;;;;;9.35;4.10;;;19.20;99.90;;;;;;5053816;28;20257;-67
2022/08/09 07:52:46;;;;;;;12.93;4.60;;;19.30;99.90;;;;;;5053215;28;20209;-68
2022/08/09 07:55:12;;;;;;;7.07;4.13;;;19.20;99.90;;;;;;5053266;28;20595;-67
2022/08/09 07:57:37;;;;;;;11.35;3.97;;;19.20;99.90;;;;;;5053484;28;20209;-67
2022/08/09 08:00:05;;;;;;;11.60;4.03;;;19.40;99.90;;;;;;5053142;28;20545;-68
2022/08/09 08:02:30;;;;;;;10.10;4.32;;;19.50;99.90;;;;;;5053243;28;20169;-67
2022/08/09 08:04:56;;;;;;;7.45;3.78;;;19.60;99.90;;;;;;5053078;28;20180;-66
2022/08/09 08:07:22;;;;;;;10.43;4.38;;;19.80;99.90;;;;;;5053053;28;20161;-67
2022/08/09 08:09:47;;;;;;;10.82;4.13;;;19.90;99.90;;;;;;5068316;28;20647;-67
2022/08/09 08:12:13;;;;;;;9.77;4.13;;;20.10;99.90;;;;;;5051706;28;20173;-67
2022/08/09 08:14:39;;;;;;;12.95;4.35;;;20.20;99.90;;;;;;5053060;28;20236;-67
2022/08/09 08:17:04;;;;;;;8.32;3.75;;;20.30;99.90;;;;;;5052981;28;20188;-67
2022/08/09 08:19:30;;;;;;;13.93;3.90;;;20.50;99.90;;;;;;5053057;28;20195;-67
2022/08/09 08:21:56;;;;;;;6.00;3.45;;;20.70;99.90;;;;;;5051671;28;20534;-67
2022/08/09 08:24:22;;;;;;;15.43;4.10;;;20.90;99.90;;;;;;5052969;28;20179;-67
2022/08/09 08:26:48;;;;;;;17.60;3.30;;;21.10;99.90;;;;;;5052995;28;20703;-67
2022/08/09 08:29:16;;;;;;;6.00;3.15;;;21.30;99.90;;;;;;5052608;28;20654;-67
2022/08/09 08:31:41;;;;;;;15.70;4.00;;;21.90;99.90;;;;;;5052636;28;20714;-67
2022/08/09 08:34:07;;;;;;;9.50;3.95;;;23.20;99.90;;;;;;5052052;28;20329;-66
2022/08/09 08:36:33;;;;;;;11.20;3.60;;;24.60;99.90;;;;;;5052506;28;20197;-67
2022/08/09 08:38:58;;;;;;;11.10;3.55;;;25.00;99.90;;;;;;5052586;28;20173;-68
2022/08/09 08:41:24;;;;;;;13.30;3.78;;;25.20;99.90;;;;;;5052390;28;20173;-67
2022/08/09 08:43:50;;;;;;;14.98;3.38;;;26.10;99.90;;;;;;5052402;28;20604;-67
2022/08/09 08:46:22;;;;;;;12.23;3.50;;;27.00;99.90;;;;;;5052437;28;20193;-68
2022/08/09 08:48:49;;;;;;;12.82;2.90;;;27.60;99.90;;;;;;5052230;28;20177;-68
2022/08/09 08:51:14;;;;;;;8.18;3.60;;;28.10;99.90;;;;;;5052259;28;20658;-67
2022/08/09 08:53:41;;;;;;;10.32;3.25;;;27.60;99.90;;;;;;5052185;28;20308;-68
2022/08/09 08:56:06;;;;;;;5.70;2.75;;;27.80;99.90;;;;;;5052045;28;20678;-68
2022/08/09 08:58:34;;;;;;;8.05;2.88;;;27.20;99.90;;;;;;5052127;28;20213;-67
2022/08/09 09:01:02;;;;;;;6.90;2.90;;;27.60;99.90;;;;;;5052154;28;20287;-68
2022/08/09 09:03:33;;;;;;;8.50;3.30;;;27.50;99.90;;;;;;5052121;28;20224;-68
2022/08/09 09:06:02;;;;;;;13.10;3.22;;;27.40;99.90;;;;;;5052092;28;20192;-68
2022/08/09 09:08:33;;;;;;;5.68;2.67;;;26.70;99.90;;;;;;5051868;28;20730;-67
2022/08/09 09:11:03;;;;;;;5.57;2.40;;;26.30;99.90;;;;;;5051879;28;20189;-68
2022/08/09 09:13:35;;;;;;;7.78;2.80;;;26.60;99.90;;;;;;5051897;28;20208;-67
2022/08/09 09:16:01;;;;;;;8.68;2.80;;;26.20;99.90;;;;;;5051773;28;20593;-67
2022/08/09 09:18:27;;;;;;;10.23;2.88;;;26.30;99.90;;;;;;5051809;28;20173;-67
2022/08/09 09:20:53;;;;;;;10.73;2.60;;;26.50;99.90;;;;;;5050738;28;20176;-66
2022/08/09 09:23:43;;;;;;;8.23;2.40;;;26.80;99.90;;;;;;5051564;28;20166;-66
2022/08/09 09:26:12;;;;;;;11.05;2.67;;;26.70;99.90;;;;;;5051552;28;20671;-67
2022/08/09 09:28:42;;;;;;;4.88;2.47;;;26.70;99.90;;;;;;5050182;28;20288;-66
2022/08/09 09:31:15;;;;;;;8.50;2.50;;;26.40;99.90;;;;;;5051528;28;20161;-66
2022/08/09 09:33:41;;;;;;;7.75;3.00;;;26.50;99.90;;;;;;5051086;28;20257;-66
2022/08/09 09:36:08;;;;;;;11.57;2.90;;;26.40;99.90;;;;;;5051250;28;20173;-66
2022/08/09 09:38:51;;;;;;;5.07;2.50;;;26.40;99.90;;;;;;5051342;28;20173;-66
2022/08/09 09:41:23;;;;;;;9.52;2.92;;;26.90;99.90;;;;;;5051273;28;20264;-67
2022/08/09 09:43:58;;;;;;;12.40;3.03;;;27.10;99.90;;;;;;5051322;28;20199;-67
2022/08/09 09:46:32;;;;;;;11.27;3.20;;;27.00;99.90;;;;;;5051443;28;20580;-68
2022/08/09 09:49:04;;;;;;;10.82;3.35;;;27.20;99.90;;;;;;5051315;28;20180;-67
2022/08/09 09:51:34;;;;;;;12.15;2.90;;;27.10;99.90;;;;;;5051097;28;20204;-67
2022/08/09 09:54:05;;;;;;;9.75;3.25;;;27.40;99.90;;;;;;5050974;28;21031;-66
2022/08/09 09:56:36;;;;;;;6.18;2.70;;;27.50;99.90;;;;;;5050961;28;20180;-66
2022/08/09 09:59:02;;;;;;;9.32;2.42;;;27.40;99.90;;;;;;5051047;28;20173;-67
2022/08/09 10:01:28;;;;;;;7.03;2.28;;;28.10;99.90;;;;;;5051079;28;20311;-66
2022/08/09 10:03:54;;;;;;;10.20;2.80;;;28.60;99.90;;;;;;5050890;28;20177;-66
2022/08/09 10:06:20;;;;;;;10.23;2.67;;;28.60;99.90;;;;;;5050936;28;20299;-65
2022/08/09 10:08:48;;;;;;;5.53;2.67;;;28.50;99.90;;;;;;5051004;28;20519;-66
2022/08/09 10:11:18;;;;;;;7.38;2.72;;;28.60;99.90;;;;;;5050857;28;20643;-67
2022/08/09 10:13:44;;;;;;;7.03;2.85;;;28.80;99.90;;;;;;5050790;28;20213;-66
2022/08/09 10:16:10;;;;;;;7.10;2.25;;;29.20;99.90;;;;;;5050820;28;20492;-65
2022/08/09 10:18:36;;;;;;;6.65;2.22;;;29.40;99.90;;;;;;5050562;28;20189;-65
2022/08/09 10:21:09;;;;;;;9.88;3.03;;;29.80;99.90;;;;;;5050835;28;20176;-67
2022/08/09 10:23:36;;;;;;;6.32;2.15;;;30.60;99.90;;;;;;5050910;28;20279;-66
2022/08/09 10:26:03;;;;;;;8.02;2.30;;;31.00;99.90;;;;;;5050860;28;20169;-67
2022/08/09 10:28:31;;;;;;;9.02;2.28;;;30.30;99.90;;;;;;5050753;28;20632;-66
2022/08/09 10:30:57;;;;;;;8.48;1.90;;;30.80;99.90;;;;;;5050666;28;20169;-66
2022/08/09 10:33:23;;;;;;;8.10;2.10;;;31.50;99.90;;;;;;5049244;28;20270;-66
2022/08/09 10:35:50;;;;;;;5.55;2.10;;;31.30;99.90;;;;;;5050620;28;20221;-64
2022/08/09 10:38:17;;;;;;;11.90;1.88;;;31.60;99.90;;;;;;5050615;28;20205;-66
2022/08/09 10:40:44;;;;;;;6.72;1.90;;;31.70;99.90;;;;;;5050621;28;20165;-65
2022/08/09 10:43:10;;;;;;;8.35;1.90;;;32.50;99.90;;;;;;5050580;28;20201;-65
2022/08/09 10:45:37;;;;;;;13.07;2.28;;;33.10;99.90;;;;;;5052460;28;20192;-65
2022/08/09 10:48:06;;;;;;;10.10;2.40;;;33.30;99.90;;;;;;5054752;28;20169;-65
2022/08/09 10:53:42;;;;;;;6.70;2.05;;;31.50;99.90;;;;;;5054515;28;20255;-66
2022/08/09 10:56:16;;;;;;;6.80;1.75;;;32.70;99.90;;;;;;5054487;28;20256;-66
2022/08/09 10:58:42;;;;;;;7.82;1.55;;;33.50;99.90;;;;;;5054200;28;20192;-66
2022/08/09 11:01:33;;;;;;;5.20;1.35;;;33.90;99.90;;;;;;5054382;28;20215;-66
2022/08/09 11:04:07;;;;;;;6.47;2.33;;;33.50;99.90;;;;;;5053198;28;20283;-67
2022/08/09 11:06:36;;;;;;;8.38;1.65;;;34.30;99.90;;;;;;5054452;28;21290;-66
2022/08/09 11:09:04;;;;;;;5.70;1.58;;;34.30;99.90;;;;;;5054289;28;20227;-65
2022/08/09 11:11:51;;;;;;;5.20;1.42;;;34.30;99.90;;;;;;5054217;28;20208;-66
2022/08/09 11:14:43;;;;;;;6.95;1.33;;;33.60;99.90;;;;;;5053943;28;20243;-67
2022/08/09 11:17:12;;;;;;;4.07;1.55;;;33.70;99.90;;;;;;5054029;28;20177;-66
2022/08/09 11:19:58;;;;;;;8.05;1.77;;;31.90;99.90;;;;;;5053874;28;20640;-66
2022/08/09 11:22:42;;;;;;;9.38;1.50;;;31.60;99.90;;;;;;5053811;28;20176;-67
2022/08/09 11:25:35;;;;;;;5.57;1.40;;;32.20;99.90;;;;;;5053672;28;20177;-66
2022/08/09 11:28:28;;;;;;;6.40;1.40;;;32.90;99.90;;;;;;5052715;28;20184;-67
2022/08/09 11:30:54;;;;;;;6.63;1.30;;;33.90;99.90;;;;;;5053739;28;20181;-67
2022/08/09 11:33:19;;;;;;;6.63;1.20;;;34.50;99.90;;;;;;5053463;28;20307;-66
2022/08/09 11:35:59;;;;;;;2.55;1.30;;;34.50;99.90;;;;;;5053372;28;20223;-67
2022/08/09 11:38:27;;;;;;;5.32;1.27;;;34.90;99.90;;;;;;5053452;28;20245;-67
2022/08/09 11:40:53;;;;;;;8.15;1.40;;;35.10;99.90;;;;;;5053468;28;20165;-67
2022/08/09 11:43:25;;;;;;;6.45;1.10;;;34.90;99.90;;;;;;5053376;28;20191;-67
2022/08/09 11:45:59;;;;;;;3.45;1.20;;;34.10;99.90;;;;;;5053312;28;20203;-67
2022/08/09 11:48:29;;;;;;;4.53;1.20;;;33.10;99.90;;;;;;5053315;28;20176;-66
2022/08/09 11:51:00;;;;;;;5.57;1.50;;;31.90;99.90;;;;;;5053564;28;20169;-66
2022/08/09 11:53:30;;;;;;;4.95;1.40;;;33.50;99.90;;;;;;5053267;28;20209;-66
2022/08/09 11:55:58;;;;;;;6.82;1.38;;;33.70;99.90;;;;;;5053098;28;20181;-66
2022/08/09 11:58:27;;;;;;;6.93;1.50;;;35.20;99.90;;;;;;5053265;28;20525;-66
2022/08/09 12:01:02;;;;;;;3.03;1.30;;;35.20;99.90;;;;;;5053108;28;20622;-66
2022/08/09 12:03:28;;;;;;;3.75;1.30;;;35.80;99.90;;;;;;5053164;28;20180;-66
2022/08/09 12:05:56;;;;;;;3.38;1.42;;;36.40;99.90;;;;;;5053135;28;20176;-66
2022/08/09 12:08:23;;;;;;;6.88;1.27;;;36.80;99.90;;;;;;5053049;28;20173;-66
2022/08/09 12:10:55;;;;;;;4.65;1.52;;;37.50;99.90;;;;;;5053041;28;20211;-66
2022/08/09 12:13:38;;;;;;;5.00;1.30;;;37.70;99.90;;;;;;5052816;28;20204;-64
2022/08/09 12:16:11;;;;;;;2.65;1.30;;;37.60;99.90;;;;;;5052774;28;20224;-65
2022/08/09 12:18:41;;;;;;;5.82;1.30;;;37.90;99.90;;;;;;5052773;28;20631;-65
2022/08/09 12:21:08;;;;;;;5.07;1.63;;;36.50;99.90;;;;;;5052773;28;20172;-65
2022/08/09 12:23:44;;;;;;;3.28;1.38;;;36.70;99.90;;;;;;5052448;28;20208;-64
2022/08/09 12:26:11;;;;;;;3.20;1.48;;;37.30;99.90;;;;;;5052503;28;20172;-65
2022/08/09 12:28:40;;;;;;;5.93;1.15;;;37.90;99.90;;;;;;5052649;28;20176;-65
2022/08/09 12:31:25;;;;;;;2.92;1.20;;;38.40;99.90;;;;;;5052545;28;20260;-65
2022/08/09 12:33:52;;;;;;;10.75;1.50;;;36.90;99.90;;;;;;5034627;28;20228;-64
2022/08/09 12:36:18;;;;;;;4.50;1.30;;;37.00;99.90;;;;;;5052479;28;20177;-66
2022/08/09 12:38:44;;;;;;;5.13;1.50;;;38.00;99.90;;;;;;5052423;28;20708;-64
2022/08/09 12:41:10;;;;;;;6.20;1.33;;;38.30;99.90;;;;;;5052470;28;20203;-64
2022/08/09 12:43:36;;;;;;;2.78;1.40;;;38.10;99.90;;;;;;5052362;28;20239;-65
2022/08/09 12:46:02;;;;;;;10.18;1.65;;;37.60;99.90;;;;;;5050906;28;20186;-65
2022/08/09 12:48:28;;;;;;;5.97;1.50;;;37.50;99.90;;;;;;5052090;28;20690;-65
2022/08/09 12:50:55;;;;;;;3.53;1.17;;;37.60;99.90;;;;;;5052279;28;20177;-66
2022/08/09 12:53:37;;;;;;;12.68;1.42;;;37.00;99.90;;;;;;5052457;28;20210;-65
2022/08/09 12:56:18;;;;;;;4.03;1.40;;;37.00;99.90;;;;;;5050878;28;20169;-65
2022/08/09 12:59:05;;;;;;;5.63;1.50;;;37.10;99.90;;;;;;5051977;28;20676;-65